createdAt,value
2023-03-22T00:01:20.809Z,78.06
2023-03-22T00:03:49.530Z,78.52
2023-03-22T00:06:17.651Z,79.20
2023-03-22T00:08:46.173Z,78.40
2023-03-22T00:11:14.281Z,78.92
2023-03-22T00:13:44.016Z,78.62
2023-03-22T00:16:13.897Z,78.97
2023-03-22T00:18:42.073Z,79.08
2023-03-22T00:21:13.468Z,80.16
2023-03-22T00:23:41.793Z,79.98
2023-03-22T00:26:10.229Z,79.99
2023-03-22T00:28:38.292Z,79.93
2023-03-22T00:31:07.305Z,79.68
2023-03-22T00:33:37.724Z,79.58
2023-03-22T00:36:08.390Z,80.53
2023-03-22T00:38:42.961Z,80.05
2023-03-22T00:41:12.944Z,81.39
2023-03-22T00:43:41.161Z,81.25
2023-03-22T00:46:09.322Z,81.05
2023-03-22T00:48:39.007Z,80.32
2023-03-22T00:51:07.404Z,80.46
2023-03-22T00:53:36.514Z,80.49
2023-03-22T00:56:05.626Z,80.25
2023-03-22T00:58:33.603Z,80.67
2023-03-22T01:01:01.807Z,80.97
2023-03-22T01:03:29.769Z,81.06
2023-03-22T01:05:59.372Z,81.28
2023-03-22T01:08:33.683Z,82.00
2023-03-22T01:11:02.358Z,81.58
2023-03-22T01:13:30.348Z,81.49
2023-03-22T01:15:58.291Z,81.81
2023-03-22T01:18:26.193Z,82.21
2023-03-22T01:20:54.115Z,82.50
2023-03-22T01:23:23.409Z,81.90
2023-03-22T01:25:51.369Z,82.64
2023-03-22T01:28:19.254Z,82.81
2023-03-22T01:30:47.271Z,82.13
2023-03-22T01:33:15.373Z,82.24
2023-03-22T01:35:43.403Z,82.59
2023-03-22T01:38:11.566Z,82.66
2023-03-22T01:40:41.390Z,83.72
2023-03-22T01:43:14.558Z,83.71
2023-03-22T01:45:45.913Z,83.94
2023-03-22T01:48:20.493Z,84.95
2023-03-22T01:50:57.561Z,85.36
2023-03-22T01:53:27.413Z,84.74
2023-03-22T01:55:58.941Z,85.38
2023-03-22T01:58:27.287Z,84.73
2023-03-22T02:00:55.914Z,85.77
2023-03-22T02:03:33.423Z,85.48
2023-03-22T02:06:01.359Z,85.09
2023-03-22T02:08:30.272Z,85.41
2023-03-22T02:10:59.806Z,85.96
2023-03-22T02:13:42.597Z,86.59
2023-03-22T02:16:24.353Z,85.22
2023-03-22T02:19:02.934Z,85.08
2023-03-22T02:21:58.749Z,86.33
2023-03-22T02:24:55.687Z,85.22
2023-03-22T02:27:52.387Z,86.31
2023-03-22T02:30:39.258Z,85.80
2023-03-22T02:33:31.086Z,85.59
2023-03-22T02:36:16.619Z,87.15
2023-03-22T02:39:08.139Z,86.29
2023-03-22T02:41:48.290Z,86.29
2023-03-22T02:44:26.687Z,86.27
2023-03-22T02:47:03.212Z,85.80
2023-03-22T02:49:37.446Z,84.53
2023-03-22T02:52:17.600Z,84.35
2023-03-22T02:54:53.831Z,85.10
2023-03-22T02:57:28.249Z,85.80
2023-03-22T02:59:58.786Z,86.23
2023-03-22T03:02:29.747Z,85.63
2023-03-22T03:04:59.203Z,85.21
2023-03-22T03:07:30.012Z,84.90
2023-03-22T03:09:59.776Z,85.42
2023-03-22T03:12:30.293Z,85.30
2023-03-22T03:14:58.406Z,85.95
2023-03-22T03:17:37.272Z,86.46
2023-03-22T03:20:24.315Z,87.62
2023-03-22T03:23:01.265Z,86.26
2023-03-22T03:25:38.468Z,86.72
2023-03-22T03:28:16.097Z,86.03
2023-03-22T03:30:51.909Z,85.43
2023-03-22T03:33:22.854Z,86.11
2023-03-22T03:35:56.061Z,87.45
2023-03-22T03:38:27.668Z,88.07
2023-03-22T03:41:00.590Z,88.57
2023-03-22T03:43:28.730Z,89.58
2023-03-22T03:45:57.025Z,89.83
2023-03-22T03:48:27.409Z,91.53
2023-03-22T03:50:57.250Z,92.00
2023-03-22T03:53:25.460Z,92.87
2023-03-22T03:55:53.379Z,93.19
2023-03-22T03:58:22.721Z,94.16
2023-03-22T04:00:51.744Z,95.62
2023-03-22T04:03:19.721Z,93.23
2023-03-22T04:05:47.645Z,93.73
2023-03-22T04:08:15.647Z,94.65
2023-03-22T04:10:44.040Z,95.37
2023-03-22T04:13:11.929Z,95.17
2023-03-22T04:15:41.214Z,95.98
2023-03-22T04:18:09.812Z,96.92
2023-03-22T04:20:39.346Z,98.44
2023-03-22T04:23:07.541Z,98.35
2023-03-22T04:25:38.069Z,98.86
2023-03-22T04:28:06.484Z,98.94
2023-03-22T04:30:36.300Z,99.52
2023-03-22T04:33:07.324Z,100.00
2023-03-22T04:35:36.186Z,100.00
2023-03-22T04:38:04.131Z,100.00
2023-03-22T04:40:36.566Z,100.00
2023-03-22T04:43:04.789Z,100.00
2023-03-22T04:45:35.081Z,100.00
2023-03-22T04:48:03.034Z,100.00
2023-03-22T04:50:32.332Z,100.00
2023-03-22T04:53:00.381Z,99.51
2023-03-22T04:55:28.231Z,99.33
2023-03-22T04:57:56.099Z,100.00
2023-03-22T05:00:24.123Z,100.00
2023-03-22T05:02:52.190Z,100.00
2023-03-22T05:05:20.155Z,100.00
2023-03-22T05:07:49.827Z,100.00
2023-03-22T05:10:17.810Z,100.00
2023-03-22T05:12:46.286Z,100.00
2023-03-22T05:15:14.238Z,100.00
2023-03-22T05:17:42.155Z,100.00
2023-03-22T05:20:11.645Z,100.00
2023-03-22T05:22:40.778Z,100.00
2023-03-22T05:25:11.875Z,100.00
2023-03-22T05:27:39.776Z,100.00
2023-03-22T05:30:09.928Z,100.00
2023-03-22T05:32:43.112Z,100.00
2023-03-22T05:35:11.396Z,100.00
2023-03-22T05:37:39.372Z,100.00
2023-03-22T05:40:10.053Z,100.00
2023-03-22T05:42:39.347Z,100.00
2023-03-22T05:45:08.348Z,100.00
2023-03-22T05:47:36.220Z,100.00
2023-03-22T05:50:04.188Z,100.00
2023-03-22T05:52:32.068Z,100.00
2023-03-22T05:54:59.952Z,100.00
2023-03-22T05:57:30.109Z,100.00
2023-03-22T05:59:59.432Z,100.00
2023-03-22T06:02:27.321Z,100.00
2023-03-22T06:04:55.340Z,100.00
2023-03-22T06:07:23.369Z,100.00
2023-03-22T06:09:51.218Z,100.00
2023-03-22T06:12:22.666Z,100.00
2023-03-22T06:14:50.561Z,100.00
2023-03-22T06:17:20.058Z,100.00
2023-03-22T06:19:48.023Z,100.00
2023-03-22T06:22:16.062Z,100.00
2023-03-22T06:24:44.182Z,100.00
2023-03-22T06:27:12.193Z,100.00
2023-03-22T06:29:40.225Z,100.00
2023-03-22T06:32:08.232Z,100.00
2023-03-22T06:34:37.886Z,100.00
2023-03-22T06:37:08.291Z,100.00
2023-03-22T06:39:36.153Z,100.00
2023-03-22T06:42:04.083Z,100.00
2023-03-22T06:44:31.961Z,100.00
2023-03-22T06:46:59.841Z,100.00
2023-03-22T06:49:27.986Z,100.00
2023-03-22T06:51:57.233Z,100.00
2023-03-22T06:54:25.074Z,100.00
2023-03-22T06:56:52.953Z,100.00
2023-03-22T06:59:20.901Z,100.00
2023-03-22T07:01:49.060Z,97.37
2023-03-22T07:04:16.994Z,100.00
2023-03-22T07:06:44.956Z,98.22
2023-03-22T07:09:14.212Z,92.08
2023-03-22T07:11:42.117Z,100.00
2023-03-22T07:14:10.036Z,98.82
2023-03-22T07:16:38.056Z,100.00
2023-03-22T07:19:06.188Z,96.04
2023-03-22T07:21:34.392Z,94.80
2023-03-22T07:24:02.313Z,94.40
2023-03-22T07:26:31.721Z,93.04
2023-03-22T07:28:59.606Z,96.64
2023-03-22T07:31:27.519Z,96.04
2023-03-22T07:33:55.375Z,95.65
2023-03-22T07:36:25.803Z,93.71
2023-03-22T07:38:53.700Z,95.40
2023-03-22T07:41:24.143Z,94.54
2023-03-22T07:44:02.192Z,93.61
2023-03-22T07:46:35.794Z,92.48
2023-03-22T07:49:03.690Z,88.82
2023-03-22T07:51:31.614Z,87.11
2023-03-22T07:53:59.501Z,86.97
2023-03-22T07:56:27.533Z,82.21
2023-03-22T07:58:56.872Z,80.34
2023-03-22T08:01:24.808Z,78.18
2023-03-22T08:03:52.758Z,77.25
2023-03-22T08:06:21.658Z,75.92
2023-03-22T08:08:49.752Z,76.05
2023-03-22T08:11:17.635Z,76.32
2023-03-22T08:13:45.643Z,74.29
2023-03-22T08:16:14.977Z,72.74
2023-03-22T08:18:44.414Z,74.03
2023-03-22T08:21:13.285Z,72.76
2023-03-22T08:23:42.449Z,72.11
2023-03-22T08:26:11.152Z,70.26
2023-03-22T08:28:39.063Z,69.91
2023-03-22T08:31:14.019Z,69.01
2023-03-22T08:33:44.564Z,69.60
2023-03-22T08:36:15.181Z,68.88
2023-03-22T08:38:45.329Z,68.20
2023-03-22T08:41:13.433Z,67.49
2023-03-22T08:43:41.406Z,67.67
2023-03-22T08:46:09.959Z,65.73
2023-03-22T08:48:38.571Z,65.46
2023-03-22T08:51:08.336Z,66.52
2023-03-22T08:53:36.561Z,65.51
2023-03-22T08:56:04.753Z,64.09
2023-03-22T08:58:32.597Z,63.72
2023-03-22T09:01:00.660Z,62.75
2023-03-22T09:03:28.590Z,63.68
2023-03-22T09:05:56.510Z,64.69
2023-03-22T09:08:26.096Z,61.94
2023-03-22T09:10:53.993Z,62.05
2023-03-22T09:13:23.179Z,61.79
2023-03-22T09:15:51.906Z,63.14
2023-03-22T09:18:20.324Z,62.75
2023-03-22T09:20:48.258Z,60.21
2023-03-22T09:23:16.233Z,59.93
2023-03-22T09:25:46.366Z,59.84
2023-03-22T09:28:14.817Z,58.85
2023-03-22T09:30:42.965Z,59.31
2023-03-22T09:33:10.998Z,58.77
2023-03-22T09:35:43.050Z,58.95
2023-03-22T09:38:12.246Z,58.91
2023-03-22T09:40:51.406Z,57.29
2023-03-22T09:43:20.709Z,56.30
2023-03-22T09:45:52.799Z,58.53
2023-03-22T09:48:23.700Z,56.61
2023-03-22T09:50:53.919Z,55.45
2023-03-22T09:53:25.604Z,56.58
2023-03-22T09:56:00.318Z,56.09
2023-03-22T09:58:34.231Z,56.67
2023-03-22T10:01:06.560Z,55.77
2023-03-22T10:04:01.418Z,55.55
2023-03-22T10:06:30.780Z,54.46
2023-03-22T10:09:09.204Z,54.11
2023-03-22T10:11:46.134Z,52.04
2023-03-22T10:14:31.179Z,53.79
2023-03-22T10:17:03.828Z,52.07
2023-03-22T10:19:37.006Z,53.28
2023-03-22T10:22:07.839Z,54.54
2023-03-22T10:24:39.731Z,53.01
2023-03-22T10:27:17.127Z,51.00
2023-03-22T10:29:49.639Z,50.98
2023-03-22T10:32:20.105Z,52.37
2023-03-22T10:34:49.464Z,49.01
2023-03-22T10:37:23.556Z,52.68
2023-03-22T10:39:55.641Z,49.29
2023-03-22T10:42:28.081Z,49.72
2023-03-22T10:45:01.686Z,50.69
2023-03-22T10:47:34.986Z,53.31
2023-03-22T10:50:06.028Z,51.40
2023-03-22T10:52:44.018Z,50.34
2023-03-22T10:55:14.755Z,52.22
2023-03-22T10:57:52.213Z,50.11
2023-03-22T11:00:24.290Z,49.74
2023-03-22T11:02:54.635Z,49.43
2023-03-22T11:05:25.880Z,50.32
2023-03-22T11:07:54.945Z,50.46
2023-03-22T11:10:29.313Z,49.59
2023-03-22T11:13:18.001Z,48.72
2023-03-22T11:15:53.613Z,49.93
2023-03-22T11:18:21.788Z,48.53
2023-03-22T11:20:59.971Z,49.51
2023-03-22T11:23:32.718Z,47.62
2023-03-22T11:26:09.753Z,47.78
2023-03-22T11:28:43.650Z,48.34
2023-03-22T11:31:13.413Z,47.68
2023-03-22T11:33:56.014Z,46.59
2023-03-22T11:36:24.525Z,46.94
2023-03-22T11:38:59.448Z,46.69
2023-03-22T11:41:29.433Z,48.23
2023-03-22T11:44:02.935Z,47.99
2023-03-22T11:46:32.081Z,48.56
2023-03-22T11:49:03.143Z,47.50
2023-03-22T11:51:33.609Z,46.72
2023-03-22T11:54:10.494Z,49.22
2023-03-22T11:56:42.854Z,47.37
2023-03-22T11:59:16.769Z,47.15
2023-03-22T12:01:50.153Z,47.29
2023-03-22T12:04:23.819Z,47.08
2023-03-22T12:06:53.782Z,45.39
2023-03-22T12:09:29.473Z,46.38
2023-03-22T12:12:00.112Z,45.04
2023-03-22T12:14:32.158Z,47.76
2023-03-22T12:17:07.761Z,45.60
2023-03-22T12:19:46.656Z,47.00
2023-03-22T12:22:17.167Z,44.66
2023-03-22T12:24:45.405Z,45.47
2023-03-22T12:27:18.990Z,45.45
2023-03-22T12:29:53.755Z,44.07
2023-03-22T12:32:26.623Z,44.98
2023-03-22T12:35:09.235Z,45.81
2023-03-22T12:37:47.524Z,43.87
2023-03-22T12:40:23.349Z,44.51
2023-03-22T12:43:00.347Z,45.79
2023-03-22T12:45:32.881Z,44.42
2023-03-22T12:48:07.326Z,44.21
2023-03-22T12:50:39.895Z,45.54
2023-03-22T12:53:12.788Z,44.27
2023-03-22T12:55:42.474Z,44.77
2023-03-22T12:58:14.220Z,43.49
2023-03-22T13:00:46.932Z,45.62
2023-03-22T13:03:24.606Z,42.27
2023-03-22T13:06:02.807Z,42.62
2023-03-22T13:09:04.608Z,42.43
2023-03-22T13:11:32.769Z,44.49
2023-03-22T13:14:00.668Z,43.33
2023-03-22T13:16:53.271Z,44.71
2023-03-22T13:19:31.566Z,41.74
2023-03-22T13:22:17.020Z,42.04
2023-03-22T13:25:13.988Z,42.16
2023-03-22T13:27:51.273Z,41.38
2023-03-22T13:30:25.336Z,39.69
2023-03-22T13:32:56.721Z,40.03
2023-03-22T13:35:28.380Z,40.61
2023-03-22T13:38:03.305Z,40.94
2023-03-22T13:40:37.099Z,40.29
2023-03-22T13:43:26.174Z,40.91
2023-03-22T13:46:06.232Z,40.50
2023-03-22T13:48:54.200Z,42.62
2023-03-22T13:51:30.293Z,39.67
2023-03-22T13:54:04.765Z,39.27
2023-03-22T13:56:47.884Z,39.27
2023-03-22T13:59:21.352Z,39.38
2023-03-22T14:01:52.741Z,39.60
2023-03-22T14:04:26.739Z,40.05
2023-03-22T14:06:59.800Z,41.05
2023-03-22T14:09:32.411Z,40.94
2023-03-22T14:12:07.064Z,42.19
2023-03-22T14:14:42.955Z,42.02
2023-03-22T14:17:21.487Z,40.99
2023-03-22T14:19:53.456Z,41.31
